Time;durP1;ratioP1;P1;durP2;ratioP2;P2;SDS_P1;SDS_P2;PMS_P1;PMS_P2;Temp;Humidity;BMP_temperature;BMP_pressure;BME280_temperature;BME280_humidity;BME280_pressure;Samples;Min_cycle;Max_cycle;Signal;HPM_P1;HPM_P2
2022/01/31 00:02:55;;;;;;;20.70;4.40;;;;;5.40;101190.00;;;;10301380;24;20213;31
2022/01/31 00:07:57;;;;;;;18.93;3.17;;;;;5.50;101194.00;;;;9607261;30;20736;-79
2022/01/31 00:18:49;;;;;;;14.60;3.93;;;;;5.60;101133.00;;;;9603070;30;20665;-78
2022/01/31 00:24:53;;;;;;;15.33;3.63;;;;;5.60;101101.00;;;;9596851;30;20229;-79
2022/01/31 00:29:56;;;;;;;12.07;3.47;;;;;5.60;101079.00;;;;9612607;30;20227;-79
2022/01/31 00:34:58;;;;;;;10.80;3.10;;;;;5.50;101068.00;;;;9615534;30;20709;-79
2022/01/31 00:40:03;;;;;;;16.33;3.80;;;;;5.40;101057.00;;;;9600238;30;20296;-80
2022/01/31 00:50:12;;;;;;;18.63;4.37;;;;;5.40;101004.00;;;;9585059;30;20221;-79
2022/01/31 00:55:15;;;;;;;14.83;4.00;;;;;5.40;100976.00;;;;9599814;30;20228;-78
2022/01/31 01:00:19;;;;;;;15.70;3.67;;;;;5.40;100959.00;;;;9614189;30;20249;-80
2022/01/31 01:05:21;;;;;;;18.37;3.90;;;;;5.40;100954.00;;;;9614196;30;20241;-80
2022/01/31 01:10:25;;;;;;;23.60;4.07;;;;;5.30;100925.00;;;;9614370;30;20228;-80
2022/01/31 01:15:28;;;;;;;21.33;3.83;;;;;5.40;100934.00;;;;9613779;30;20661;-80
2022/01/31 01:20:30;;;;;;;12.03;3.30;;;;;5.40;100925.00;;;;9600479;30;20232;-81
2022/01/31 01:25:33;;;;;;;15.80;4.23;;;;;5.30;100911.00;;;;9570654;30;20226;-81
2022/01/31 01:30:36;;;;;;;13.30;3.97;;;;;5.10;100885.00;;;;9579076;30;20301;-81
2022/01/31 01:35:39;;;;;;;11.50;4.10;;;;;5.10;100865.00;;;;9579163;30;20238;-81
2022/01/31 01:40:42;;;;;;;14.20;3.57;;;;;5.00;100835.00;;;;9600911;30;20220;-81
2022/01/31 01:45:51;;;;;;;16.00;4.00;;;;;5.00;100822.00;;;;9587710;30;20299;-81
2022/01/31 01:50:55;;;;;;;15.10;3.73;;;;;5.10;100797.00;;;;9585757;30;21091;-80
2022/01/31 01:55:57;;;;;;;14.50;3.47;;;;;5.10;100814.00;;;;9613447;30;20247;-80
2022/01/31 02:01:04;;;;;;;15.60;3.77;;;;;5.10;100788.00;;;;9604192;30;20332;-82
2022/01/31 02:06:32;;;;;;;9.13;3.77;;;;;5.10;100776.00;;;;9591446;30;20243;-82
2022/01/31 02:11:34;;;;;;;12.73;3.83;;;;;5.10;100786.00;;;;9599709;30;20677;-81
2022/01/31 02:16:38;;;;;;;13.70;3.73;;;;;5.10;100775.00;;;;9613536;30;20682;-81
2022/01/31 02:21:57;;;;;;;11.47;3.80;;;;;5.10;100770.00;;;;9613803;30;20248;-80
2022/01/31 02:27:25;;;;;;;10.40;4.03;;;;;5.10;100769.00;;;;9648395;30;20215;-80
2022/01/31 02:32:28;;;;;;;14.37;3.93;;;;;5.20;100753.00;;;;9615624;30;20240;-81
2022/01/31 02:37:34;;;;;;;13.77;3.50;;;;;5.20;100757.00;;;;9574769;30;20637;-80
2022/01/31 02:42:51;;;;;;;6.83;3.97;;;;;5.20;100755.00;;;;9602134;30;20240;-80
2022/01/31 02:47:57;;;;;;;8.90;2.70;;;;;5.30;100710.00;;;;9599900;30;20212;-80
2022/01/31 02:53:12;;;;;;;5.40;1.83;;;;;5.40;100730.00;;;;9586797;30;20224;-80
2022/01/31 02:58:16;;;;;;;3.47;2.00;;;;;5.40;100734.00;;;;9613684;30;20614;-80
2022/01/31 03:03:20;;;;;;;7.63;2.13;;;;;5.50;100718.00;;;;9607193;30;20268;-81
2022/01/31 03:08:24;;;;;;;5.67;2.10;;;;;5.50;100730.00;;;;9620901;30;20364;-80
2022/01/31 03:13:26;;;;;;;8.37;1.87;;;;;5.60;100720.00;;;;9605279;30;20698;-79
2022/01/31 03:18:31;;;;;;;5.40;2.10;;;;;5.60;100730.00;;;;9604036;30;20566;-80
2022/01/31 03:23:34;;;;;;;5.73;1.90;;;;;5.70;100707.00;;;;9577208;30;20237;-80
2022/01/31 03:28:36;;;;;;;4.87;2.03;;;;;5.80;100721.00;;;;9583242;30;20242;-79
2022/01/31 03:33:38;;;;;;;6.50;2.03;;;;;5.90;100706.00;;;;9581900;30;20217;-79
2022/01/31 03:38:41;;;;;;;7.47;2.40;;;;;5.90;100691.00;;;;9581074;30;20201;-79
2022/01/31 03:43:43;;;;;;;7.27;2.00;;;;;6.00;100684.00;;;;9582108;30;20249;-79
2022/01/31 03:48:46;;;;;;;12.97;2.43;;;;;6.10;100689.00;;;;9582356;30;20214;-81
2022/01/31 03:54:03;;;;;;;8.93;2.67;;;;;6.30;100700.00;;;;9626594;30;20303;-79
2022/01/31 03:59:06;;;;;;;8.70;2.13;;;;;6.40;100683.00;;;;9601510;30;20264;-80
2022/01/31 04:04:10;;;;;;;7.47;2.00;;;;;6.40;100680.00;;;;9629982;30;20240;-80
2022/01/31 04:09:12;;;;;;;5.47;1.47;;;;;6.30;100677.00;;;;9628650;30;20292;-80
2022/01/31 04:14:14;;;;;;;19.00;3.27;;;;;6.20;100663.00;;;;9613223;30;20677;-80
2022/01/31 04:19:16;;;;;;;10.77;2.87;;;;;6.20;100663.00;;;;9614787;30;20225;-80
2022/01/31 04:24:22;;;;;;;4.93;1.57;;;;;6.20;100644.00;;;;9593457;30;20250;-79
2022/01/31 04:29:27;;;;;;;7.93;2.20;;;;;6.10;100680.00;;;;9598478;30;20221;-79
2022/01/31 04:34:31;;;;;;;9.13;2.67;;;;;6.00;100679.00;;;;9614621;30;20213;-79
2022/01/31 04:39:33;;;;;;;10.90;2.07;;;;;6.10;100692.00;;;;9634894;30;20209;-80
2022/01/31 04:44:36;;;;;;;12.83;2.90;;;;;6.20;100686.00;;;;9627213;30;20265;-79
2022/01/31 04:49:37;;;;;;;10.97;2.37;;;;;6.20;100694.00;;;;9613770;30;20209;-79
2022/01/31 04:54:41;;;;;;;7.93;1.77;;;;;6.20;100684.00;;;;9649510;30;20232;-79
2022/01/31 04:59:44;;;;;;;8.07;1.87;;;;;6.20;100682.00;;;;9663169;30;20259;-79
2022/01/31 05:04:46;;;;;;;10.67;2.63;;;;;6.10;100689.00;;;;9631465;30;20737;-80
2022/01/31 05:09:48;;;;;;;8.17;2.30;;;;;6.10;100676.00;;;;9612320;30;20213;-79
2022/01/31 05:14:50;;;;;;;8.20;1.67;;;;;6.20;100675.00;;;;9598688;30;20738;-80
2022/01/31 05:19:52;;;;;;;11.10;3.17;;;;;6.30;100669.00;;;;9598094;30;20217;-80
2022/01/31 05:24:54;;;;;;;12.23;2.87;;;;;6.40;100675.00;;;;9576817;30;20238;-80
2022/01/31 05:29:56;;;;;;;10.77;1.67;;;;;6.30;100670.00;;;;9595731;30;20223;-80
2022/01/31 05:35:01;;;;;;;15.70;2.50;;;;;6.40;100658.00;;;;9627088;30;20216;-80
2022/01/31 05:40:04;;;;;;;9.93;2.17;;;;;6.40;100658.00;;;;9622096;30;20362;-80
2022/01/31 05:45:06;;;;;;;6.93;1.77;;;;;6.50;100647.00;;;;9625189;30;20244;-80
2022/01/31 05:50:09;;;;;;;6.60;2.10;;;;;6.40;100645.00;;;;9639477;30;20749;-80
2022/01/31 05:55:13;;;;;;;10.93;2.37;;;;;6.50;100665.00;;;;9597252;30;20303;-80
2022/01/31 06:00:15;;;;;;;12.50;2.03;;;;;6.50;100654.00;;;;9597960;30;20217;-79
2022/01/31 06:05:17;;;;;;;8.60;2.20;;;;;6.50;100655.00;;;;9597096;30;20240;-80
2022/01/31 06:10:19;;;;;;;9.57;2.63;;;;;6.50;100667.00;;;;9596860;30;20482;-80
2022/01/31 06:15:22;;;;;;;5.70;1.33;;;;;6.50;100649.00;;;;9597355;30;20256;-80
2022/01/31 06:20:24;;;;;;;10.50;1.90;;;;;6.50;100662.00;;;;9598166;30;20217;-80
2022/01/31 06:25:26;;;;;;;7.77;1.80;;;;;6.50;100668.00;;;;9613245;30;20895;-81
2022/01/31 06:30:28;;;;;;;3.73;1.70;;;;;6.50;100625.00;;;;9598715;30;20312;-80
2022/01/31 06:35:30;;;;;;;11.03;1.90;;;;;6.50;100657.00;;;;9611358;30;20249;-81
2022/01/31 06:40:32;;;;;;;8.73;2.20;;;;;6.50;100672.00;;;;9611339;30;20220;-80
2022/01/31 06:45:34;;;;;;;10.20;2.17;;;;;6.50;100672.00;;;;9611304;30;20237;-80
2022/01/31 06:50:39;;;;;;;10.17;2.03;;;;;6.50;100657.00;;;;9610979;30;20307;-81
2022/01/31 06:55:41;;;;;;;16.67;3.10;;;;;6.50;100682.00;;;;9597508;30;20244;-81
2022/01/31 07:00:43;;;;;;;10.67;2.43;;;;;6.50;100668.00;;;;9597496;30;20248;-80
2022/01/31 07:05:45;;;;;;;10.73;2.73;;;;;6.60;100691.00;;;;9590140;30;20319;-81
2022/01/31 07:10:51;;;;;;;10.90;2.20;;;;;6.50;100650.00;;;;9625272;30;20221;-81
2022/01/31 07:15:54;;;;;;;12.80;3.00;;;;;6.60;100685.00;;;;9611212;30;20641;-80
2022/01/31 07:20:56;;;;;;;11.30;2.43;;;;;6.50;100701.00;;;;9625229;30;20217;-80
2022/01/31 07:25:58;;;;;;;7.20;2.03;;;;;6.50;100698.00;;;;9624735;30;20225;-80
2022/01/31 07:31:01;;;;;;;10.67;2.53;;;;;6.60;100699.00;;;;9577669;30;20205;-80
2022/01/31 07:36:03;;;;;;;7.77;1.90;;;;;6.60;100700.00;;;;9596903;30;20224;-80
2022/01/31 07:41:06;;;;;;;14.20;2.87;;;;;6.60;100688.00;;;;9612348;30;20211;-80
2022/01/31 07:46:07;;;;;;;10.03;2.60;;;;;6.60;100716.00;;;;9600425;30;20232;-80
2022/01/31 07:51:10;;;;;;;9.23;2.20;;;;;6.60;100722.00;;;;9616789;30;20261;-80
2022/01/31 07:56:14;;;;;;;11.00;2.17;;;;;6.60;100725.00;;;;9616884;30;20209;-80
2022/01/31 08:01:17;;;;;;;13.27;2.20;;;;;6.50;100726.00;;;;9616903;30;20224;-80
2022/01/31 08:06:19;;;;;;;9.07;1.90;;;;;6.60;100739.00;;;;9616178;30;20247;-80
2022/01/31 08:11:23;;;;;;;11.27;2.50;;;;;6.60;100743.00;;;;9602507;30;20217;-80
2022/01/31 08:16:25;;;;;;;11.27;2.97;;;;;6.70;100766.00;;;;9616818;30;20958;-81
2022/01/31 08:21:27;;;;;;;10.37;2.30;;;;;6.70;100772.00;;;;9604128;30;20275;-81
2022/01/31 08:26:29;;;;;;;13.00;2.03;;;;;6.60;100782.00;;;;9631299;30;20241;-81
2022/01/31 08:31:34;;;;;;;8.13;2.30;;;;;6.60;100782.00;;;;9615213;30;20312;-80
2022/01/31 08:36:36;;;;;;;10.17;2.33;;;;;6.70;100783.00;;;;9602131;30;20213;-80
2022/01/31 08:41:42;;;;;;;6.97;1.93;;;;;6.70;100778.00;;;;9587598;30;20626;-81
2022/01/31 08:46:46;;;;;;;10.90;2.63;;;;;6.70;100792.00;;;;9616565;30;20567;-81
2022/01/31 08:51:49;;;;;;;5.27;2.10;;;;;6.60;100827.00;;;;9615271;30;20228;-81
2022/01/31 08:56:51;;;;;;;9.97;2.80;;;;;6.60;100793.00;;;;9599735;30;20935;-81
2022/01/31 09:02:18;;;;;;;14.43;2.43;;;;;6.70;100798.00;;;;9614643;30;20678;-81
2022/01/31 09:07:21;;;;;;;9.60;2.53;;;;;6.60;100812.00;;;;9629569;30;20236;-81
2022/01/31 09:12:30;;;;;;;11.20;3.03;;;;;6.80;100801.00;;;;9614557;30;20293;-80
2022/01/31 09:17:35;;;;;;;17.50;2.43;;;;;6.80;100821.00;;;;9614656;30;20221;-81
2022/01/31 09:22:38;;;;;;;7.40;2.00;;;;;6.80;100804.00;;;;9580365;30;20602;-81
2022/01/31 09:27:41;;;;;;;12.57;2.43;;;;;6.90;100838.00;;;;9593308;30;20217;-80
2022/01/31 09:32:43;;;;;;;13.77;2.73;;;;;6.90;100856.00;;;;9606927;30;20225;-81
2022/01/31 09:37:45;;;;;;;13.47;2.77;;;;;6.90;100861.00;;;;9613536;30;20217;-81
2022/01/31 09:48:41;;;;;;;10.67;2.40;;;;;7.40;100851.00;;;;9604175;30;20221;-80
2022/01/31 09:53:46;;;;;;;13.47;3.07;;;;;7.60;100862.00;;;;9592263;30;20221;-82
2022/01/31 09:58:51;;;;;;;14.17;3.03;;;;;6.90;100896.00;;;;9566069;30;20209;-81
2022/01/31 10:04:18;;;;;;;15.73;3.57;;;;;5.80;100922.00;;;;9594163;30;20245;-81
2022/01/31 10:09:23;;;;;;;10.03;2.40;;;;;5.20;100923.00;;;;9598224;30;20244;-80
2022/01/31 10:19:55;;;;;;;11.70;2.77;;;;;6.40;100934.00;;;;9611648;30;20235;-80
2022/01/31 10:25:02;;;;;;;12.90;2.47;;;;;6.30;100928.00;;;;9597979;30;20237;-80
2022/01/31 10:30:20;;;;;;;13.77;3.90;;;;;6.40;100932.00;;;;9598396;30;20271;-80
2022/01/31 10:35:25;;;;;;;15.53;3.00;;;;;6.70;100930.00;;;;9587735;30;20710;-81
2022/01/31 10:51:53;;;;;;;21.87;3.23;;;;;6.60;100971.00;;;;9612682;30;20256;-81
2022/01/31 10:56:57;;;;;;;17.03;3.47;;;;;6.10;100982.00;;;;9586424;30;20225;-81
2022/01/31 11:02:02;;;;;;;20.13;3.10;;;;;5.60;100960.00;;;;9612156;30;20224;-82
2022/01/31 11:07:10;;;;;;;13.20;2.77;;;;;5.40;100998.00;;;;9612868;30;20340;-81
2022/01/31 11:12:13;;;;;;;15.43;2.93;;;;;5.50;101009.00;;;;9611689;30;20220;-81
2022/01/31 11:17:17;;;;;;;16.50;3.77;;;;;5.50;101011.00;;;;9585167;30;20220;-82
2022/01/31 11:22:27;;;;;;;16.03;3.33;;;;;5.40;100988.00;;;;9602151;30;20225;-81
2022/01/31 11:27:46;;;;;;;25.07;4.23;;;;;5.70;100963.00;;;;9606126;30;20272;-80
2022/01/31 11:32:49;;;;;;;17.70;3.80;;;;;6.10;101002.00;;;;9604714;30;20225;-81
2022/01/31 11:37:52;;;;;;;14.53;3.33;;;;;6.30;100986.00;;;;9618155;30;20240;-81
2022/01/31 11:42:55;;;;;;;10.83;3.20;;;;;6.40;100977.00;;;;9604466;30;21114;-81
2022/01/31 11:48:05;;;;;;;13.53;3.10;;;;;6.40;100993.00;;;;9617619;30;20296;-81
2022/01/31 11:53:07;;;;;;;11.73;2.37;;;;;6.40;101037.00;;;;9603712;30;20224;-81
2022/01/31 11:58:17;;;;;;;14.37;2.93;;;;;6.60;101044.00;;;;9632913;30;20213;-82
2022/01/31 12:03:19;;;;;;;14.87;3.53;;;;;6.80;101034.00;;;;9616747;30;20394;-81
2022/01/31 12:08:33;;;;;;;12.67;3.80;;;;;7.00;101040.00;;;;9631898;30;20217;-81
2022/01/31 12:13:46;;;;;;;12.07;2.97;;;;;6.90;101038.00;;;;9617187;30;20625;-81
2022/01/31 12:19:01;;;;;;;17.17;3.63;;;;;6.90;101054.00;;;;9616856;30;20216;-81
2022/01/31 12:24:09;;;;;;;12.80;3.37;;;;;6.80;101041.00;;;;9606065;30;20299;-82
2022/01/31 12:29:15;;;;;;;20.63;3.87;;;;;6.60;101042.00;;;;9617847;30;20292;-81
2022/01/31 12:34:16;;;;;;;21.27;3.73;;;;;6.30;101044.00;;;;9616263;30;20691;-81
2022/01/31 12:39:31;;;;;;;20.40;3.90;;;;;6.20;101045.00;;;;9575682;30;20724;-81
2022/01/31 12:44:46;;;;;;;19.33;3.67;;;;;6.20;101050.00;;;;9631274;30;20240;-82
2022/01/31 12:50:20;;;;;;;18.50;3.93;;;;;6.10;101021.00;;;;9617519;30;20213;-82
2022/01/31 12:55:27;;;;;;;13.13;3.13;;;;;6.20;101074.00;;;;9602466;30;20217;-81
2022/01/31 13:00:41;;;;;;;19.97;4.57;;;;;6.30;101087.00;;;;9602707;30;20682;-81
2022/01/31 13:06:46;;;;;;;24.17;4.50;;;;;6.20;101087.00;;;;9614672;30;20235;-82
2022/01/31 13:11:53;;;;;;;23.13;4.33;;;;;6.00;101100.00;;;;9612739;30;20704;-81
2022/01/31 13:17:08;;;;;;;23.30;3.77;;;;;5.50;101099.00;;;;9601572;30;20229;-81
2022/01/31 13:22:17;;;;;;;12.53;3.57;;;;;5.50;101100.00;;;;9616824;30;20680;-82
2022/01/31 13:27:27;;;;;;;18.80;4.90;;;;;5.80;101067.00;;;;9615414;30;20220;-81
2022/01/31 13:32:41;;;;;;;14.93;3.57;;;;;6.10;101100.00;;;;9588006;30;20227;-81
2022/01/31 13:37:47;;;;;;;24.53;5.33;;;;;6.20;101120.00;;;;9614882;30;20224;-81
2022/01/31 13:43:10;;;;;;;22.63;4.43;;;;;6.20;101117.00;;;;9599695;30;20244;-82
2022/01/31 13:53:31;;;;;;;21.33;5.10;;;;;6.30;101135.00;;;;9601096;30;20217;-81
2022/01/31 13:58:36;;;;;;;18.90;4.27;;;;;6.30;101146.00;;;;9599461;30;20567;-81
2022/01/31 14:03:42;;;;;;;15.57;4.53;;;;;6.10;101141.00;;;;9600564;30;20607;-81
2022/01/31 14:08:47;;;;;;;25.23;4.63;;;;;5.70;101135.00;;;;9600055;30;20659;-81
2022/01/31 14:13:50;;;;;;;21.57;4.27;;;;;5.70;101137.00;;;;9599595;30;20213;-82
2022/01/31 14:18:55;;;;;;;14.17;4.10;;;;;5.90;101119.00;;;;9599809;30;20784;-82
2022/01/31 14:24:01;;;;;;;8.67;2.63;;;;;6.00;101169.00;;;;9592989;30;20248;-81
2022/01/31 14:29:24;;;;;;;20.60;4.80;;;;;6.10;101185.00;;;;9590567;30;20210;-81
2022/01/31 14:34:26;;;;;;;19.33;5.17;;;;;6.00;101182.00;;;;9592723;30;20214;-81
2022/01/31 14:39:36;;;;;;;29.73;4.97;;;;;6.00;101189.00;;;;9603973;30;20238;-82
2022/01/31 14:50:21;;;;;;;17.83;4.50;;;;;5.80;101212.00;;;;9612254;30;20228;-81
2022/01/31 14:55:24;;;;;;;22.73;4.50;;;;;5.60;101240.00;;;;9600462;30;20217;-81
2022/01/31 15:00:27;;;;;;;23.60;4.97;;;;;5.50;101248.00;;;;9621127;30;20691;-82
2022/01/31 15:05:29;;;;;;;26.70;5.10;;;;;5.40;101245.00;;;;9605884;30;20657;-82
2022/01/31 15:10:32;;;;;;;27.97;4.13;;;;;5.20;101268.00;;;;9604660;30;20284;-82
2022/01/31 15:15:35;;;;;;;32.07;6.43;;;;;5.20;101266.00;;;;9619157;30;20266;-82
2022/01/31 15:20:38;;;;;;;25.60;5.97;;;;;5.00;101298.00;;;;9608939;30;20225;-82
2022/01/31 15:25:42;;;;;;;22.70;5.30;;;;;4.90;101321.00;;;;9607930;30;20241;-81
2022/01/31 15:30:44;;;;;;;25.93;5.47;;;;;4.70;101357.00;;;;9580592;30;20218;-81
2022/01/31 15:35:55;;;;;;;24.17;5.47;;;;;4.60;101346.00;;;;9570944;30;20690;-81
2022/01/31 15:40:58;;;;;;;31.00;5.93;;;;;4.40;101343.00;;;;9591368;30;20224;-82
2022/01/31 15:46:01;;;;;;;28.70;4.73;;;;;4.30;101372.00;;;;9604139;30;20243;-82
2022/01/31 15:51:04;;;;;;;27.83;5.50;;;;;4.30;101375.00;;;;9617604;30;20235;-81
2022/01/31 15:56:06;;;;;;;40.47;6.83;;;;;4.30;101372.00;;;;9630888;30;20611;-81
2022/01/31 16:01:11;;;;;;;27.63;6.40;;;;;4.40;101392.00;;;;9618230;30;20741;-81
2022/01/31 16:06:13;;;;;;;19.10;4.47;;;;;4.50;101375.00;;;;9630645;30;20237;-81
2022/01/31 16:11:16;;;;;;;32.47;6.43;;;;;4.70;101384.00;;;;9630804;30;20236;-81
2022/01/31 16:16:42;;;;;;;24.00;4.83;;;;;4.50;101396.00;;;;9604105;30;20623;-81
2022/01/31 16:21:44;;;;;;;18.13;4.53;;;;;4.50;101413.00;;;;9630338;30;20225;-81
2022/01/31 16:26:47;;;;;;;23.33;5.37;;;;;4.70;101399.00;;;;9602991;30;20295;-80
2022/01/31 16:31:48;;;;;;;20.30;5.03;;;;;4.90;101389.00;;;;9601473;30;20287;-81
2022/01/31 16:36:51;;;;;;;18.60;4.67;;;;;5.00;101392.00;;;;9601329;30;20248;-80
2022/01/31 16:41:53;;;;;;;29.27;6.53;;;;;5.00;101413.00;;;;9602003;30;20745;-79
2022/01/31 16:46:55;;;;;;;27.10;4.67;;;;;5.00;101413.00;;;;9601464;30;20237;-80
2022/01/31 16:51:57;;;;;;;27.00;5.13;;;;;5.10;101392.00;;;;9600897;30;20225;-80
2022/01/31 16:57:02;;;;;;;22.47;4.60;;;;;5.10;101409.00;;;;9614618;30;20706;-80
2022/01/31 17:02:05;;;;;;;26.33;5.10;;;;;4.90;101440.00;;;;9601293;30;20213;-81
2022/01/31 17:07:08;;;;;;;18.03;3.27;;;;;4.60;101458.00;;;;9601683;30;20720;-80
2022/01/31 17:12:13;;;;;;;21.87;4.93;;;;;4.70;101444.00;;;;9614600;30;20205;-80
2022/01/31 17:17:14;;;;;;;30.20;6.53;;;;;4.90;101463.00;;;;9614833;30;20223;-80
2022/01/31 17:22:19;;;;;;;27.07;5.37;;;;;4.90;101445.00;;;;9614606;30;20221;-80
2022/01/31 17:27:21;;;;;;;19.23;3.63;;;;;4.90;101492.00;;;;9612092;30;20316;-80
2022/01/31 17:32:23;;;;;;;24.47;4.67;;;;;4.90;101485.00;;;;9591743;30;20209;-80
2022/01/31 17:37:25;;;;;;;37.13;6.47;;;;;5.00;101501.00;;;;9593261;30;20217;-81
2022/01/31 17:42:29;;;;;;;22.13;5.17;;;;;5.00;101507.00;;;;9591892;30;20273;-81
2022/01/31 17:47:30;;;;;;;19.97;4.87;;;;;4.90;101491.00;;;;9577610;30;20229;-81
2022/01/31 17:52:33;;;;;;;20.10;4.77;;;;;4.90;101505.00;;;;9596855;30;20213;-81
2022/01/31 17:57:35;;;;;;;24.47;5.37;;;;;5.10;101514.00;;;;9598730;30;20930;-80
2022/01/31 18:02:40;;;;;;;28.23;5.60;;;;;5.20;101522.00;;;;9613620;30;20216;-81
2022/01/31 18:07:41;;;;;;;23.00;5.63;;;;;5.30;101528.00;;;;9626632;30;20241;-80
2022/01/31 18:12:44;;;;;;;25.13;8.80;;;;;5.50;101523.00;;;;9598174;30;20204;-80
2022/01/31 18:17:46;;;;;;;21.80;5.20;;;;;5.60;101515.00;;;;9597887;30;20251;-80
2022/01/31 18:22:49;;;;;;;25.40;4.90;;;;;5.60;101555.00;;;;9598234;30;20356;-80
2022/01/31 18:27:51;;;;;;;15.27;4.37;;;;;5.60;101573.00;;;;9594049;30;20232;-81
2022/01/31 18:32:56;;;;;;;21.87;5.07;;;;;5.70;101577.00;;;;9562028;30;20210;-81
2022/01/31 18:37:59;;;;;;;17.30;4.43;;;;;5.70;101593.00;;;;9579362;30;20227;-81
2022/01/31 18:43:03;;;;;;;22.63;4.40;;;;;5.60;101608.00;;;;9584343;30;20686;-81
2022/01/31 18:48:12;;;;;;;12.70;2.70;;;;;5.30;101620.00;;;;9584185;30;20235;-80
2022/01/31 18:53:14;;;;;;;16.73;4.80;;;;;5.00;101620.00;;;;9573470;30;20221;-80
2022/01/31 18:58:17;;;;;;;21.30;4.13;;;;;4.90;101623.00;;;;9576854;30;20221;-80
2022/01/31 19:03:21;;;;;;;20.03;3.93;;;;;4.90;101627.00;;;;9590448;30;20983;-81
2022/01/31 19:08:25;;;;;;;26.73;3.63;;;;;5.10;101636.00;;;;9611810;30;20910;-80
2022/01/31 19:18:44;;;;;;;10.70;2.60;;;;;5.20;101637.00;;;;9588224;30;20213;-81
2022/01/31 19:23:46;;;;;;;20.20;3.93;;;;;5.10;101643.00;;;;9646789;30;20843;-80
2022/01/31 19:28:52;;;;;;;22.70;3.20;;;;;5.00;101661.00;;;;9635717;30;20216;-81
2022/01/31 19:33:55;;;;;;;13.33;3.50;;;;;4.90;101662.00;;;;9582953;30;20213;-81
2022/01/31 19:39:04;;;;;;;12.50;4.07;;;;;4.80;101680.00;;;;9576573;30;20218;-81
2022/01/31 19:44:06;;;;;;;11.97;3.47;;;;;4.80;101672.00;;;;9579739;30;20238;-80
2022/01/31 19:49:08;;;;;;;18.37;2.83;;;;;4.70;101682.00;;;;9569368;30;20241;-80
2022/01/31 19:54:10;;;;;;;20.57;4.63;;;;;4.70;101687.00;;;;9619079;30;20225;-81
2022/01/31 19:59:12;;;;;;;12.30;3.17;;;;;4.70;101705.00;;;;9603247;30;20228;-80
2022/01/31 20:04:14;;;;;;;13.93;3.77;;;;;4.80;101705.00;;;;9568273;30;20242;-80
2022/01/31 20:09:23;;;;;;;20.50;3.87;;;;;4.90;101701.00;;;;9581770;30;20205;-80
2022/01/31 20:14:25;;;;;;;18.73;4.13;;;;;4.90;101726.00;;;;9567280;30;20217;-80
2022/01/31 20:19:27;;;;;;;27.43;4.07;;;;;4.80;101751.00;;;;9581003;30;20760;-81
2022/01/31 20:24:30;;;;;;;16.43;3.40;;;;;4.60;101761.00;;;;9635341;30;20236;-80
2022/01/31 20:29:32;;;;;;;22.57;4.33;;;;;4.50;101784.00;;;;9620422;30;20583;-80
2022/01/31 20:34:35;;;;;;;14.47;2.93;;;;;4.50;101758.00;;;;9608986;30;20217;-80
2022/01/31 20:44:57;;;;;;;16.80;4.00;;;;;4.30;101765.00;;;;9615770;30;20455;-80
2022/01/31 20:50:00;;;;;;;20.33;4.17;;;;;4.20;101765.00;;;;9614655;30;20209;-80
2022/01/31 20:55:03;;;;;;;14.20;2.93;;;;;4.20;101772.00;;;;9589718;30;20303;-80
2022/01/31 21:00:06;;;;;;;18.67;3.37;;;;;4.10;101765.00;;;;9573547;30;20678;-80
2022/01/31 21:05:15;;;;;;;10.93;2.43;;;;;4.00;101776.00;;;;9615453;30;20300;-80
2022/01/31 21:10:18;;;;;;;19.07;4.10;;;;;4.00;101782.00;;;;9587189;30;20868;-80
2022/01/31 21:15:20;;;;;;;24.00;4.00;;;;;3.90;101771.00;;;;9614717;30;20213;-80
2022/01/31 21:20:22;;;;;;;19.13;3.93;;;;;3.80;101783.00;;;;9600798;30;20228;-81
2022/01/31 21:25:25;;;;;;;14.07;3.73;;;;;3.70;101784.00;;;;9600573;30;20233;-80
2022/01/31 21:30:28;;;;;;;19.60;3.53;;;;;3.70;101773.00;;;;9579022;30;20879;-80
2022/01/31 21:35:30;;;;;;;19.60;3.73;;;;;3.50;101797.00;;;;9579647;30;20220;-80
2022/01/31 21:40:32;;;;;;;24.00;4.20;;;;;3.40;101794.00;;;;9592553;30;20675;-80
2022/01/31 21:45:34;;;;;;;16.50;4.27;;;;;3.40;101809.00;;;;9613229;30;20229;-80
2022/01/31 21:50:36;;;;;;;19.33;4.30;;;;;3.40;101815.00;;;;9634585;30;20247;-80
2022/01/31 21:55:41;;;;;;;14.33;3.97;;;;;3.30;101809.00;;;;9630335;30;20220;-80
2022/01/31 22:00:43;;;;;;;20.37;4.30;;;;;3.10;101828.00;;;;9612623;30;20217;-80
2022/01/31 22:05:47;;;;;;;15.97;3.70;;;;;3.10;101852.00;;;;9626422;30;20576;-80
2022/01/31 22:16:16;;;;;;;17.63;4.43;;;;;3.00;101854.00;;;;9598187;30;20213;-80
2022/01/31 22:21:19;;;;;;;17.87;3.93;;;;;2.80;101855.00;;;;9598462;30;20224;-80
2022/01/31 22:26:21;;;;;;;26.77;5.13;;;;;2.70;101839.00;;;;9598082;30;20718;-80
2022/01/31 22:31:23;;;;;;;29.17;4.00;;;;;2.80;101825.00;;;;9598826;30;20279;-80
2022/01/31 22:36:28;;;;;;;18.77;4.43;;;;;2.80;101834.00;;;;9611869;30;20209;-80
2022/01/31 22:41:30;;;;;;;25.57;4.30;;;;;2.70;101848.00;;;;9612297;30;20217;-80
2022/01/31 22:46:32;;;;;;;17.13;4.63;;;;;2.70;101835.00;;;;9625006;30;20244;-80
2022/01/31 22:51:35;;;;;;;12.50;3.80;;;;;2.70;101831.00;;;;9611169;30;20315;-81
2022/01/31 22:56:37;;;;;;;19.23;3.60;;;;;2.70;101823.00;;;;9598041;30;20926;-80
2022/01/31 23:01:39;;;;;;;20.00;3.57;;;;;2.60;101823.00;;;;9585281;30;20728;-80
2022/01/31 23:06:41;;;;;;;9.80;2.93;;;;;2.70;101800.00;;;;9583930;30;20248;-80
2022/01/31 23:11:47;;;;;;;21.63;4.00;;;;;2.80;101796.00;;;;9597972;30;20960;-80
2022/01/31 23:16:54;;;;;;;10.83;3.03;;;;;2.70;101807.00;;;;9612966;30;20730;-80
2022/01/31 23:54:22;;;;;;;7.90;1.93;;;;;3.00;101824.00;;;;9602419;30;20726;-80
